sensor_id;sensor_type;location;lat;lon;timestamp;pressure;altitude;pressure_sealevel;temperature;humidity
4590;BME280;2307;48.448;9.216;2023-04-06T00:01:46;95562.81;;;4.37;52.77
4590;BME280;2307;48.448;9.216;2023-04-06T00:04:12;95565.19;;;4.32;52.62
4590;BME280;2307;48.448;9.216;2023-04-06T00:06:39;95565.34;;;4.23;52.36
4590;BME280;2307;48.448;9.216;2023-04-06T00:09:06;95560.72;;;4.25;53.25
4590;BME280;2307;48.448;9.216;2023-04-06T00:11:33;95551.09;;;3.98;51.87
4590;BME280;2307;48.448;9.216;2023-04-06T00:14:00;95548.97;;;4.08;52.37
4590;BME280;2307;48.448;9.216;2023-04-06T00:16:27;95550.72;;;4.01;53.55
4590;BME280;2307;48.448;9.216;2023-04-06T00:18:56;95544.50;;;4.02;52.87
4590;BME280;2307;48.448;9.216;2023-04-06T00:21:22;95543.97;;;3.86;52.22
4590;BME280;2307;48.448;9.216;2023-04-06T00:23:49;95546.69;;;3.71;52.36
4590;BME280;2307;48.448;9.216;2023-04-06T00:26:15;95545.66;;;3.72;52.69
4590;BME280;2307;48.448;9.216;2023-04-06T00:28:42;95542.69;;;3.75;53.39
4590;BME280;2307;48.448;9.216;2023-04-06T00:31:09;95531.16;;;3.91;53.10
4590;BME280;2307;48.448;9.216;2023-04-06T00:33:36;95523.50;;;3.89;52.45
4590;BME280;2307;48.448;9.216;2023-04-06T00:36:03;95536.41;;;3.69;50.61
4590;BME280;2307;48.448;9.216;2023-04-06T00:38:30;95528.91;;;3.60;52.05
4590;BME280;2307;48.448;9.216;2023-04-06T00:40:57;95528.91;;;3.60;51.90
4590;BME280;2307;48.448;9.216;2023-04-06T00:43:23;95524.00;;;3.78;50.64
4590;BME280;2307;48.448;9.216;2023-04-06T00:45:50;95521.31;;;3.93;52.65
4590;BME280;2307;48.448;9.216;2023-04-06T00:48:18;95522.66;;;3.82;52.75
4590;BME280;2307;48.448;9.216;2023-04-06T00:50:45;95520.25;;;3.87;52.92
4590;BME280;2307;48.448;9.216;2023-04-06T00:53:11;95520.25;;;3.87;52.98
4590;BME280;2307;48.448;9.216;2023-04-06T00:55:38;95510.19;;;3.84;54.81
4590;BME280;2307;48.448;9.216;2023-04-06T00:58:05;95519.56;;;3.72;54.34
4590;BME280;2307;48.448;9.216;2023-04-06T01:00:32;95517.69;;;3.66;55.88
4590;BME280;2307;48.448;9.216;2023-04-06T01:02:58;95510.78;;;3.58;56.26
4590;BME280;2307;48.448;9.216;2023-04-06T01:05:27;95512.75;;;3.50;55.87
4590;BME280;2307;48.448;9.216;2023-04-06T01:07:53;95515.41;;;3.56;55.14
4590;BME280;2307;48.448;9.216;2023-04-06T01:10:23;95503.66;;;3.67;55.29
4590;BME280;2307;48.448;9.216;2023-04-06T01:12:50;95509.19;;;3.57;53.39
4590;BME280;2307;48.448;9.216;2023-04-06T01:15:16;95511.22;;;3.62;54.72
4590;BME280;2307;48.448;9.216;2023-04-06T01:17:42;95503.09;;;3.50;54.18
4590;BME280;2307;48.448;9.216;2023-04-06T01:20:09;95506.34;;;3.52;56.09
4590;BME280;2307;48.448;9.216;2023-04-06T01:22:37;95505.53;;;3.52;54.77
4590;BME280;2307;48.448;9.216;2023-04-06T01:25:04;95502.81;;;3.39;53.94
4590;BME280;2307;48.448;9.216;2023-04-06T01:27:30;95498.19;;;3.62;53.53
4590;BME280;2307;48.448;9.216;2023-04-06T01:29:57;95498.00;;;3.63;54.22
4590;BME280;2307;48.448;9.216;2023-04-06T01:32:24;95495.66;;;3.75;51.97
4590;BME280;2307;48.448;9.216;2023-04-06T01:34:50;95496.84;;;3.72;50.45
4590;BME280;2307;48.448;9.216;2023-04-06T01:37:17;95484.34;;;3.68;50.27
4590;BME280;2307;48.448;9.216;2023-04-06T01:39:45;95485.16;;;3.68;50.75
4590;BME280;2307;48.448;9.216;2023-04-06T01:42:11;95487.50;;;3.57;50.46
4590;BME280;2307;48.448;9.216;2023-04-06T01:44:38;95481.22;;;3.79;50.76
4590;BME280;2307;48.448;9.216;2023-04-06T01:47:04;95480.25;;;3.80;49.81
4590;BME280;2307;48.448;9.216;2023-04-06T01:49:31;95479.13;;;3.68;50.08
4590;BME280;2307;48.448;9.216;2023-04-06T01:51:57;95474.00;;;3.81;52.39
4590;BME280;2307;48.448;9.216;2023-04-06T01:54:24;95477.97;;;3.70;53.86
4590;BME280;2307;48.448;9.216;2023-04-06T01:56:51;95478.69;;;3.58;54.95
4590;BME280;2307;48.448;9.216;2023-04-06T01:59:18;95472.88;;;3.62;55.48
4590;BME280;2307;48.448;9.216;2023-04-06T02:01:44;95478.31;;;3.40;56.47
4590;BME280;2307;48.448;9.216;2023-04-06T02:04:11;95477.09;;;3.36;57.37
4590;BME280;2307;48.448;9.216;2023-04-06T02:06:38;95479.66;;;3.29;57.99
4590;BME280;2307;48.448;9.216;2023-04-06T02:09:05;95484.38;;;3.19;58.88
4590;BME280;2307;48.448;9.216;2023-04-06T02:11:31;95485.19;;;3.19;60.11
4590;BME280;2307;48.448;9.216;2023-04-06T02:13:59;95471.81;;;3.08;60.54
4590;BME280;2307;48.448;9.216;2023-04-06T02:16:26;95480.66;;;3.07;62.49
4590;BME280;2307;48.448;9.216;2023-04-06T02:18:53;95474.19;;;3.03;63.00
4590;BME280;2307;48.448;9.216;2023-04-06T02:21:19;95471.13;;;2.99;62.38
4590;BME280;2307;48.448;9.216;2023-04-06T02:23:46;95474.84;;;2.90;62.28
4590;BME280;2307;48.448;9.216;2023-04-06T02:26:12;95469.63;;;2.90;62.87
4590;BME280;2307;48.448;9.216;2023-04-06T02:28:39;95474.72;;;2.77;62.78
4590;BME280;2307;48.448;9.216;2023-04-06T02:31:07;95470.22;;;2.71;62.96
4590;BME280;2307;48.448;9.216;2023-04-06T02:33:34;95462.94;;;2.81;61.00
4590;BME280;2307;48.448;9.216;2023-04-06T02:36:00;95472.53;;;2.81;61.45
4590;BME280;2307;48.448;9.216;2023-04-06T02:38:27;95469.81;;;2.89;61.43
4590;BME280;2307;48.448;9.216;2023-04-06T02:40:53;95459.44;;;2.74;62.24
4590;BME280;2307;48.448;9.216;2023-04-06T02:43:19;95466.41;;;2.88;61.78
4590;BME280;2307;48.448;9.216;2023-04-06T02:45:46;95457.94;;;2.86;60.26
4590;BME280;2307;48.448;9.216;2023-04-06T02:48:14;95462.66;;;2.76;61.20
4590;BME280;2307;48.448;9.216;2023-04-06T02:50:40;95469.56;;;2.84;62.86
4590;BME280;2307;48.448;9.216;2023-04-06T02:53:07;95461.56;;;2.85;62.90
4590;BME280;2307;48.448;9.216;2023-04-06T02:55:33;95469.03;;;2.88;63.46
4590;BME280;2307;48.448;9.216;2023-04-06T02:58:00;95469.31;;;2.79;62.90
4590;BME280;2307;48.448;9.216;2023-04-06T03:00:26;95469.50;;;2.77;64.65
4590;BME280;2307;48.448;9.216;2023-04-06T03:02:52;95467.25;;;2.74;63.97
4590;BME280;2307;48.448;9.216;2023-04-06T03:05:20;95470.22;;;2.71;65.99
4590;BME280;2307;48.448;9.216;2023-04-06T03:07:47;95469.72;;;2.61;66.26
4590;BME280;2307;48.448;9.216;2023-04-06T03:10:13;95466.28;;;2.60;66.08
4590;BME280;2307;48.448;9.216;2023-04-06T03:12:40;95465.72;;;2.44;65.42
4590;BME280;2307;48.448;9.216;2023-04-06T03:15:07;95467.59;;;2.50;65.21
4590;BME280;2307;48.448;9.216;2023-04-06T03:17:33;95467.59;;;2.50;64.72
4590;BME280;2307;48.448;9.216;2023-04-06T03:20:00;95463.75;;;2.46;62.85
4590;BME280;2307;48.448;9.216;2023-04-06T03:22:28;95467.69;;;2.56;63.13
4590;BME280;2307;48.448;9.216;2023-04-06T03:24:54;95461.53;;;2.64;62.13
4590;BME280;2307;48.448;9.216;2023-04-06T03:27:21;95463.88;;;2.59;62.47
4590;BME280;2307;48.448;9.216;2023-04-06T03:29:47;95462.03;;;2.53;63.94
4590;BME280;2307;48.448;9.216;2023-04-06T03:32:14;95464.91;;;2.43;64.02
4590;BME280;2307;48.448;9.216;2023-04-06T03:34:40;95467.97;;;2.47;64.45
4590;BME280;2307;48.448;9.216;2023-04-06T03:37:07;95470.50;;;2.40;65.88
4590;BME280;2307;48.448;9.216;2023-04-06T03:39:34;95472.94;;;2.27;66.44
4590;BME280;2307;48.448;9.216;2023-04-06T03:42:01;95468.53;;;2.28;65.46
4590;BME280;2307;48.448;9.216;2023-04-06T03:44:27;95474.63;;;2.35;64.88
4590;BME280;2307;48.448;9.216;2023-04-06T03:46:54;95471.31;;;2.26;64.89
4590;BME280;2307;48.448;9.216;2023-04-06T03:49:20;95467.81;;;2.34;65.47
4590;BME280;2307;48.448;9.216;2023-04-06T03:51:47;95474.81;;;2.33;66.17
4590;BME280;2307;48.448;9.216;2023-04-06T03:54:13;95472.94;;;2.27;67.28
4590;BME280;2307;48.448;9.216;2023-04-06T03:56:41;95480.56;;;2.29;67.31
4590;BME280;2307;48.448;9.216;2023-04-06T03:59:07;95482.44;;;2.35;66.75
4590;BME280;2307;48.448;9.216;2023-04-06T04:01:34;95480.56;;;2.29;66.77
4590;BME280;2307;48.448;9.216;2023-04-06T04:04:00;95483.06;;;2.37;67.66
4590;BME280;2307;48.448;9.216;2023-04-06T04:06:27;95482.91;;;2.24;65.38
4590;BME280;2307;48.448;9.216;2023-04-06T04:08:53;95493.59;;;2.14;65.34
4590;BME280;2307;48.448;9.216;2023-04-06T04:11:20;95496.13;;;1.93;65.33
4590;BME280;2307;48.448;9.216;2023-04-06T04:13:48;95492.78;;;1.84;67.44
4590;BME280;2307;48.448;9.216;2023-04-06T04:16:14;95493.13;;;1.81;68.30
4590;BME280;2307;48.448;9.216;2023-04-06T04:18:40;95498.59;;;1.72;68.36
4590;BME280;2307;48.448;9.216;2023-04-06T04:21:08;95499.72;;;1.77;68.51
4590;BME280;2307;48.448;9.216;2023-04-06T04:23:35;95499.72;;;1.77;70.62
4590;BME280;2307;48.448;9.216;2023-04-06T04:26:01;95491.03;;;1.62;70.15
4590;BME280;2307;48.448;9.216;2023-04-06T04:28:28;95493.13;;;1.67;70.64
4590;BME280;2307;48.448;9.216;2023-04-06T04:30:55;95492.94;;;1.68;70.83
4590;BME280;2307;48.448;9.216;2023-04-06T04:33:22;95501.84;;;1.74;70.90
4590;BME280;2307;48.448;9.216;2023-04-06T04:35:49;95495.97;;;1.57;73.24
4590;BME280;2307;48.448;9.216;2023-04-06T04:38:15;95493.66;;;1.62;74.19
4590;BME280;2307;48.448;9.216;2023-04-06T04:43:11;95499.22;;;1.59;75.60
4590;BME280;2307;48.448;9.216;2023-04-06T04:45:38;95499.50;;;1.64;74.79
4590;BME280;2307;48.448;9.216;2023-04-06T04:48:05;95493.59;;;1.70;72.80
4590;BME280;2307;48.448;9.216;2023-04-06T04:50:33;95506.75;;;1.54;74.00
4590;BME280;2307;48.448;9.216;2023-04-06T04:53:00;95509.09;;;1.49;75.24
4590;BME280;2307;48.448;9.216;2023-04-06T04:55:28;95507.50;;;1.40;76.70
4590;BME280;2307;48.448;9.216;2023-04-06T04:57:55;95506.81;;;1.46;75.67
4590;BME280;2307;48.448;9.216;2023-04-06T05:00:21;95510.22;;;1.46;75.89
4590;BME280;2307;48.448;9.216;2023-04-06T05:02:48;95506.75;;;1.54;74.96
4590;BME280;2307;48.448;9.216;2023-04-06T05:05:16;95517.88;;;1.48;76.49
4590;BME280;2307;48.448;9.216;2023-04-06T05:07:42;95509.75;;;1.43;77.98
4590;BME280;2307;48.448;9.216;2023-04-06T05:10:09;95517.19;;;1.31;79.01
4590;BME280;2307;48.448;9.216;2023-04-06T05:12:36;95515.97;;;1.42;76.38
4590;BME280;2307;48.448;9.216;2023-04-06T05:15:03;95511.69;;;1.49;73.73
4590;BME280;2307;48.448;9.216;2023-04-06T05:17:30;95519.91;;;1.52;74.64
4590;BME280;2307;48.448;9.216;2023-04-06T05:19:56;95521.09;;;1.50;75.45
4590;BME280;2307;48.448;9.216;2023-04-06T05:22:24;95520.47;;;1.48;76.24
4590;BME280;2307;48.448;9.216;2023-04-06T05:24:51;95523.63;;;1.58;75.95
4590;BME280;2307;48.448;9.216;2023-04-06T05:27:17;95529.00;;;1.56;77.19
4590;BME280;2307;48.448;9.216;2023-04-06T05:29:44;95526.13;;;1.51;77.85
4590;BME280;2307;48.448;9.216;2023-04-06T05:32:10;95527.13;;;1.65;75.96
4590;BME280;2307;48.448;9.216;2023-04-06T05:34:37;95531.38;;;1.66;74.92
4590;BME280;2307;48.448;9.216;2023-04-06T05:37:03;95535.94;;;1.64;75.11
4590;BME280;2307;48.448;9.216;2023-04-06T05:39:31;95536.47;;;1.59;75.51
4590;BME280;2307;48.448;9.216;2023-04-06T05:41:57;95542.91;;;1.49;73.58
4590;BME280;2307;48.448;9.216;2023-04-06T05:44:24;95544.91;;;1.62;74.81
4590;BME280;2307;48.448;9.216;2023-04-06T05:46:50;95534.28;;;1.86;73.41
4590;BME280;2307;48.448;9.216;2023-04-06T05:49:17;95540.91;;;1.88;72.43
4590;BME280;2307;48.448;9.216;2023-04-06T05:51:43;95545.06;;;1.97;72.23
4590;BME280;2307;48.448;9.216;2023-04-06T05:54:10;95540.41;;;1.93;73.24
4590;BME280;2307;48.448;9.216;2023-04-06T05:56:37;95540.47;;;1.85;73.17
4590;BME280;2307;48.448;9.216;2023-04-06T05:59:04;95542.91;;;1.86;71.49
4590;BME280;2307;48.448;9.216;2023-04-06T06:01:32;95551.28;;;1.96;69.72
4590;BME280;2307;48.448;9.216;2023-04-06T06:03:59;95542.84;;;2.09;70.60
4590;BME280;2307;48.448;9.216;2023-04-06T06:06:27;95556.66;;;2.09;70.90
4590;BME280;2307;48.448;9.216;2023-04-06T06:08:53;95552.09;;;2.11;70.88
4590;BME280;2307;48.448;9.216;2023-04-06T06:11:20;95552.09;;;2.11;71.03
4590;BME280;2307;48.448;9.216;2023-04-06T06:13:48;95556.59;;;2.18;70.92
4590;BME280;2307;48.448;9.216;2023-04-06T06:16:15;95552.19;;;2.18;72.07
4590;BME280;2307;48.448;9.216;2023-04-06T06:18:41;95550.75;;;2.16;73.10
4590;BME280;2307;48.448;9.216;2023-04-06T06:21:07;95558.72;;;2.14;72.77
4590;BME280;2307;48.448;9.216;2023-04-06T06:23:34;95549.28;;;2.13;74.06
4590;BME280;2307;48.448;9.216;2023-04-06T06:26:00;95555.31;;;2.13;74.42
4590;BME280;2307;48.448;9.216;2023-04-06T06:28:27;95546.16;;;2.18;74.37
4590;BME280;2307;48.448;9.216;2023-04-06T06:30:55;95553.97;;;2.18;74.70
4590;BME280;2307;48.448;9.216;2023-04-06T06:33:21;95548.94;;;2.31;73.86
4590;BME280;2307;48.448;9.216;2023-04-06T06:35:48;95554.44;;;2.21;75.34
4590;BME280;2307;48.448;9.216;2023-04-06T06:38:14;95560.81;;;2.19;76.63
4590;BME280;2307;48.448;9.216;2023-04-06T06:40:40;95554.22;;;2.23;77.06
4590;BME280;2307;48.448;9.216;2023-04-06T06:43:07;95550.91;;;2.29;76.48
4590;BME280;2307;48.448;9.216;2023-04-06T06:45:33;95554.72;;;2.41;75.47
4590;BME280;2307;48.448;9.216;2023-04-06T06:48:01;95553.00;;;2.33;78.73
4590;BME280;2307;48.448;9.216;2023-04-06T06:50:28;95560.56;;;2.28;77.92
4590;BME280;2307;48.448;9.216;2023-04-06T06:52:54;95556.88;;;2.37;78.23
4590;BME280;2307;48.448;9.216;2023-04-06T06:55:21;95562.88;;;2.38;79.82
4590;BME280;2307;48.448;9.216;2023-04-06T06:57:47;95568.91;;;2.53;77.23
4590;BME280;2307;48.448;9.216;2023-04-06T07:00:14;95565.94;;;2.56;77.25
4590;BME280;2307;48.448;9.216;2023-04-06T07:02:40;95562.75;;;2.60;74.76
4590;BME280;2307;48.448;9.216;2023-04-06T07:05:08;95569.69;;;2.68;75.13
4590;BME280;2307;48.448;9.216;2023-04-06T07:07:35;95569.59;;;2.61;76.90
4590;BME280;2307;48.448;9.216;2023-04-06T07:10:01;95572.47;;;2.66;77.67
4590;BME280;2307;48.448;9.216;2023-04-06T07:12:28;95563.75;;;2.74;78.18
4590;BME280;2307;48.448;9.216;2023-04-06T07:14:54;95570.59;;;2.75;78.68
4590;BME280;2307;48.448;9.216;2023-04-06T07:17:21;95568.59;;;2.77;77.87
4590;BME280;2307;48.448;9.216;2023-04-06T07:19:47;95563.09;;;2.87;73.90
4590;BME280;2307;48.448;9.216;2023-04-06T07:22:16;95565.53;;;2.88;71.37
4590;BME280;2307;48.448;9.216;2023-04-06T07:24:42;95569.66;;;2.97;68.26
4590;BME280;2307;48.448;9.216;2023-04-06T07:27:08;95576.56;;;2.90;69.81
4590;BME280;2307;48.448;9.216;2023-04-06T07:29:35;95570.47;;;2.98;70.73
4590;BME280;2307;48.448;9.216;2023-04-06T07:32:01;95568.91;;;3.03;70.15
4590;BME280;2307;48.448;9.216;2023-04-06T07:34:28;95569.66;;;2.97;73.61
4590;BME280;2307;48.448;9.216;2023-04-06T07:36:54;95566.91;;;3.05;73.95
4590;BME280;2307;48.448;9.216;2023-04-06T07:39:23;95561.09;;;3.25;73.46
4590;BME280;2307;48.448;9.216;2023-04-06T07:41:51;95566.09;;;3.41;75.09
4590;BME280;2307;48.448;9.216;2023-04-06T07:44:17;95564.34;;;3.48;73.37
4590;BME280;2307;48.448;9.216;2023-04-06T07:46:44;95565.34;;;3.47;77.51
4590;BME280;2307;48.448;9.216;2023-04-06T07:49:10;95567.34;;;3.45;75.33
4590;BME280;2307;48.448;9.216;2023-04-06T07:51:37;95569.25;;;3.57;78.81
4590;BME280;2307;48.448;9.216;2023-04-06T07:54:04;95569.50;;;3.62;79.37
4590;BME280;2307;48.448;9.216;2023-04-06T07:56:32;95563.56;;;3.75;76.73
4590;BME280;2307;48.448;9.216;2023-04-06T07:58:58;95563.69;;;3.88;73.07
4590;BME280;2307;48.448;9.216;2023-04-06T08:01:25;95560.97;;;4.03;72.75
4590;BME280;2307;48.448;9.216;2023-04-06T08:03:51;95563.03;;;4.07;68.85
4590;BME280;2307;48.448;9.216;2023-04-06T08:06:19;95565.22;;;4.04;70.00
4590;BME280;2307;48.448;9.216;2023-04-06T08:08:45;95566.25;;;4.09;71.33
4590;BME280;2307;48.448;9.216;2023-04-06T08:11:12;95568.97;;;4.22;69.27
4590;BME280;2307;48.448;9.216;2023-04-06T08:13:40;95567.19;;;4.29;64.30
4590;BME280;2307;48.448;9.216;2023-04-06T08:16:06;95574.53;;;4.41;62.19
4590;BME280;2307;48.448;9.216;2023-04-06T08:18:33;95568.94;;;4.50;60.28
4590;BME280;2307;48.448;9.216;2023-04-06T08:20:59;95569.72;;;4.51;59.66
4590;BME280;2307;48.448;9.216;2023-04-06T08:23:26;95567.75;;;4.53;63.06
4590;BME280;2307;48.448;9.216;2023-04-06T08:25:52;95562.91;;;4.50;65.22
4590;BME280;2307;48.448;9.216;2023-04-06T08:28:19;95570.06;;;4.69;61.83
4590;BME280;2307;48.448;9.216;2023-04-06T08:30:47;95564.03;;;4.75;65.03
4590;BME280;2307;48.448;9.216;2023-04-06T08:33:14;95568.53;;;4.88;60.93
4590;BME280;2307;48.448;9.216;2023-04-06T08:35:40;95574.38;;;4.96;59.10
4590;BME280;2307;48.448;9.216;2023-04-06T08:38:07;95570.84;;;5.17;56.91
4590;BME280;2307;48.448;9.216;2023-04-06T08:40:35;95561.41;;;5.22;57.08
4590;BME280;2307;48.448;9.216;2023-04-06T08:43:02;95569.47;;;5.27;57.40
4590;BME280;2307;48.448;9.216;2023-04-06T08:45:33;95568.91;;;5.39;55.97
4590;BME280;2307;48.448;9.216;2023-04-06T08:48:01;95565.69;;;5.50;60.75
4590;BME280;2307;48.448;9.216;2023-04-06T08:50:29;95560.47;;;5.56;58.08
4590;BME280;2307;48.448;9.216;2023-04-06T08:52:55;95560.06;;;5.59;60.31
4590;BME280;2307;48.448;9.216;2023-04-06T08:55:22;95559.66;;;5.69;60.86
4590;BME280;2307;48.448;9.216;2023-04-06T08:57:50;95561.28;;;5.83;58.60
4590;BME280;2307;48.448;9.216;2023-04-06T09:00:20;95556.88;;;5.90;62.06
4590;BME280;2307;48.448;9.216;2023-04-06T09:02:47;95558.09;;;5.94;60.55
4590;BME280;2307;48.448;9.216;2023-04-06T09:05:16;95562.53;;;6.00;57.27
4590;BME280;2307;48.448;9.216;2023-04-06T09:07:44;95559.72;;;6.08;57.28
4590;BME280;2307;48.448;9.216;2023-04-06T09:10:10;95558.09;;;6.20;56.13
4590;BME280;2307;48.448;9.216;2023-04-06T09:12:37;95561.69;;;6.32;54.89
4590;BME280;2307;48.448;9.216;2023-04-06T09:15:04;95562.91;;;6.36;54.11
4590;BME280;2307;48.448;9.216;2023-04-06T09:17:31;95568.34;;;6.41;54.83
4590;BME280;2307;48.448;9.216;2023-04-06T09:19:59;95554.41;;;6.48;53.06
4590;BME280;2307;48.448;9.216;2023-04-06T09:22:34;95554.38;;;6.61;51.53
4590;BME280;2307;48.448;9.216;2023-04-06T09:25:00;95548.47;;;6.78;53.26
4590;BME280;2307;48.448;9.216;2023-04-06T09:27:30;95547.44;;;6.86;52.41
4590;BME280;2307;48.448;9.216;2023-04-06T09:30:02;95550.59;;;7.01;49.55
4590;BME280;2307;48.448;9.216;2023-04-06T09:32:29;95542.97;;;6.93;49.64
4590;BME280;2307;48.448;9.216;2023-04-06T09:35:04;95545.34;;;7.01;47.39
4590;BME280;2307;48.448;9.216;2023-04-06T09:37:32;95548.97;;;7.07;47.02
4590;BME280;2307;48.448;9.216;2023-04-06T09:40:02;95539.44;;;7.12;48.03
4590;BME280;2307;48.448;9.216;2023-04-06T09:42:28;95538.78;;;7.23;46.93
4590;BME280;2307;48.448;9.216;2023-04-06T09:44:55;95541.44;;;7.17;45.05
4590;BME280;2307;48.448;9.216;2023-04-06T09:47:22;95538.59;;;7.18;46.14
4590;BME280;2307;48.448;9.216;2023-04-06T09:49:50;95538.75;;;7.30;46.98
4590;BME280;2307;48.448;9.216;2023-04-06T09:52:16;95531.81;;;7.42;47.47
4590;BME280;2307;48.448;9.216;2023-04-06T09:54:45;95532.53;;;7.56;45.62
4590;BME280;2307;48.448;9.216;2023-04-06T09:57:21;95532.28;;;7.64;47.00
4590;BME280;2307;48.448;9.216;2023-04-06T09:59:52;95532.38;;;7.51;44.86
4590;BME280;2307;48.448;9.216;2023-04-06T10:02:25;95532.47;;;7.62;44.16
4590;BME280;2307;48.448;9.216;2023-04-06T10:04:56;95528.38;;;7.73;44.80
4590;BME280;2307;48.448;9.216;2023-04-06T10:07:25;95527.41;;;7.92;47.65
4590;BME280;2307;48.448;9.216;2023-04-06T10:09:53;95523.19;;;8.09;45.66
4590;BME280;2307;48.448;9.216;2023-04-06T10:12:20;95527.53;;;8.22;42.84
4590;BME280;2307;48.448;9.216;2023-04-06T10:14:47;95517.94;;;8.09;42.21
4590;BME280;2307;48.448;9.216;2023-04-06T10:17:14;95518.97;;;8.33;44.69
4590;BME280;2307;48.448;9.216;2023-04-06T10:19:42;95529.44;;;8.39;42.47
4590;BME280;2307;48.448;9.216;2023-04-06T10:22:10;95526.81;;;8.58;40.27
4590;BME280;2307;48.448;9.216;2023-04-06T10:24:38;95520.09;;;8.62;43.32
4590;BME280;2307;48.448;9.216;2023-04-06T10:27:06;95523.03;;;8.72;41.89
4590;BME280;2307;48.448;9.216;2023-04-06T10:29:46;95522.63;;;9.04;42.81
4590;BME280;2307;48.448;9.216;2023-04-06T10:32:14;95514.06;;;9.39;43.50
4590;BME280;2307;48.448;9.216;2023-04-06T10:34:40;95519.19;;;9.64;42.64
4590;BME280;2307;48.448;9.216;2023-04-06T10:37:10;95513.19;;;9.98;42.69
4590;BME280;2307;48.448;9.216;2023-04-06T10:39:45;95515.53;;;10.29;39.64
4590;BME280;2307;48.448;9.216;2023-04-06T10:42:13;95514.25;;;10.32;37.12
4590;BME280;2307;48.448;9.216;2023-04-06T10:44:42;95504.94;;;10.41;38.71
4590;BME280;2307;48.448;9.216;2023-04-06T10:47:15;95497.56;;;10.78;38.42
4590;BME280;2307;48.448;9.216;2023-04-06T10:49:41;95504.47;;;11.07;39.93
4590;BME280;2307;48.448;9.216;2023-04-06T10:52:08;95502.31;;;11.32;39.24
4590;BME280;2307;48.448;9.216;2023-04-06T10:54:34;95505.81;;;11.49;37.95
4590;BME280;2307;48.448;9.216;2023-04-06T10:57:07;95506.19;;;11.69;36.72
4590;BME280;2307;48.448;9.216;2023-04-06T10:59:34;95502.84;;;11.91;37.11
4590;BME280;2307;48.448;9.216;2023-04-06T11:02:01;95500.94;;;12.03;36.71
4590;BME280;2307;48.448;9.216;2023-04-06T11:04:27;95505.09;;;11.99;36.51
4590;BME280;2307;48.448;9.216;2023-04-06T11:06:54;95499.81;;;12.15;35.75
4590;BME280;2307;48.448;9.216;2023-04-06T11:09:24;95503.25;;;12.16;33.57
4590;BME280;2307;48.448;9.216;2023-04-06T11:11:52;95511.13;;;12.11;33.42
4590;BME280;2307;48.448;9.216;2023-04-06T11:14:19;95511.03;;;12.06;31.46
4590;BME280;2307;48.448;9.216;2023-04-06T11:16:47;95501.66;;;11.82;32.79
4590;BME280;2307;48.448;9.216;2023-04-06T11:19:14;95499.56;;;12.00;34.44
4590;BME280;2307;48.448;9.216;2023-04-06T11:21:41;95494.72;;;12.31;34.18
4590;BME280;2307;48.448;9.216;2023-04-06T11:24:09;95495.72;;;12.63;35.46
4590;BME280;2307;48.448;9.216;2023-04-06T11:26:39;95491.19;;;12.80;32.38
4590;BME280;2307;48.448;9.216;2023-04-06T11:29:06;95486.25;;;12.89;32.29
4590;BME280;2307;48.448;9.216;2023-04-06T11:31:37;95491.81;;;12.87;33.56
4590;BME280;2307;48.448;9.216;2023-04-06T11:34:09;95481.69;;;13.06;32.82
4590;BME280;2307;48.448;9.216;2023-04-06T11:36:36;95484.16;;;13.34;31.69
4590;BME280;2307;48.448;9.216;2023-04-06T11:39:06;95486.16;;;13.22;31.55
4590;BME280;2307;48.448;9.216;2023-04-06T11:41:32;95495.88;;;12.95;29.48
4590;BME280;2307;48.448;9.216;2023-04-06T11:44:00;95480.72;;;12.90;30.35
4590;BME280;2307;48.448;9.216;2023-04-06T11:46:27;95475.28;;;13.02;29.86
4590;BME280;2307;48.448;9.216;2023-04-06T11:48:53;95486.16;;;13.22;29.61
4590;BME280;2307;48.448;9.216;2023-04-06T11:51:25;95473.84;;;12.94;29.08
4590;BME280;2307;48.448;9.216;2023-04-06T11:53:52;95476.09;;;13.24;30.04
4590;BME280;2307;48.448;9.216;2023-04-06T11:56:22;95477.09;;;13.18;28.48
4590;BME280;2307;48.448;9.216;2023-04-06T11:58:49;95467.69;;;12.89;30.34
4590;BME280;2307;48.448;9.216;2023-04-06T12:01:16;95472.88;;;12.78;28.88
4590;BME280;2307;48.448;9.216;2023-04-06T12:03:42;95467.03;;;12.76;29.07
4590;BME280;2307;48.448;9.216;2023-04-06T12:06:09;95466.47;;;12.74;28.95
4590;BME280;2307;48.448;9.216;2023-04-06T12:08:37;95466.47;;;12.96;29.04
4590;BME280;2307;48.448;9.216;2023-04-06T12:11:03;95466.53;;;13.23;29.59
4590;BME280;2307;48.448;9.216;2023-04-06T12:13:29;95452.50;;;13.54;30.86
4590;BME280;2307;48.448;9.216;2023-04-06T12:15:56;95447.06;;;13.98;31.01
4590;BME280;2307;48.448;9.216;2023-04-06T12:18:23;95451.00;;;14.32;29.86
4590;BME280;2307;48.448;9.216;2023-04-06T12:20:50;95444.31;;;14.61;29.32
4590;BME280;2307;48.448;9.216;2023-04-06T12:23:18;95452.06;;;14.68;28.06
4590;BME280;2307;48.448;9.216;2023-04-06T12:25:46;95455.84;;;14.40;27.43
4590;BME280;2307;48.448;9.216;2023-04-06T12:28:12;95448.25;;;14.59;29.06
4590;BME280;2307;48.448;9.216;2023-04-06T12:30:39;95444.38;;;14.81;29.30
4590;BME280;2307;48.448;9.216;2023-04-06T12:33:06;95438.63;;;15.10;29.09
4590;BME280;2307;48.448;9.216;2023-04-06T12:35:33;95438.69;;;15.25;27.97
4590;BME280;2307;48.448;9.216;2023-04-06T12:38:00;95444.94;;;14.88;26.43
4590;BME280;2307;48.448;9.216;2023-04-06T12:40:26;95431.19;;;14.45;27.26
4590;BME280;2307;48.448;9.216;2023-04-06T12:42:54;95434.94;;;14.54;28.44
4590;BME280;2307;48.448;9.216;2023-04-06T12:45:21;95431.69;;;15.04;27.88
4590;BME280;2307;48.448;9.216;2023-04-06T12:47:47;95435.00;;;15.41;27.75
4590;BME280;2307;48.448;9.216;2023-04-06T12:50:13;95434.97;;;15.31;26.46
4590;BME280;2307;48.448;9.216;2023-04-06T12:52:40;95435.88;;;14.79;25.79
4590;BME280;2307;48.448;9.216;2023-04-06T12:55:07;95432.00;;;14.50;29.27
4590;BME280;2307;48.448;9.216;2023-04-06T12:57:33;95431.28;;;14.65;29.76
4590;BME280;2307;48.448;9.216;2023-04-06T13:00:01;95439.63;;;14.83;28.71
4590;BME280;2307;48.448;9.216;2023-04-06T13:02:29;95441.94;;;14.70;27.14
4590;BME280;2307;48.448;9.216;2023-04-06T13:04:56;95435.00;;;14.64;27.06
4590;BME280;2307;48.448;9.216;2023-04-06T13:07:22;95436.34;;;14.66;26.81
4590;BME280;2307;48.448;9.216;2023-04-06T13:09:49;95434.72;;;14.65;27.02
4590;BME280;2307;48.448;9.216;2023-04-06T13:12:15;95429.41;;;14.65;26.05
4590;BME280;2307;48.448;9.216;2023-04-06T13:14:42;95434.13;;;15.10;27.04
4590;BME280;2307;48.448;9.216;2023-04-06T13:17:09;95432.84;;;15.28;27.02
4590;BME280;2307;48.448;9.216;2023-04-06T13:19:36;95423.28;;;15.37;27.14
4590;BME280;2307;48.448;9.216;2023-04-06T13:22:02;95425.13;;;15.26;26.74
4590;BME280;2307;48.448;9.216;2023-04-06T13:24:29;95434.44;;;15.19;26.02
4590;BME280;2307;48.448;9.216;2023-04-06T13:26:55;95424.00;;;15.02;25.86
4590;BME280;2307;48.448;9.216;2023-04-06T13:29:22;95438.13;;;15.18;25.80
4590;BME280;2307;48.448;9.216;2023-04-06T13:31:48;95428.56;;;15.32;24.34